Airfield :
LOGIN :

Register | Disclaimer

   EN    FR    IT 

 










Legend :    VFR   Marginal VFR   IFR   Intensive IFR   Very Intensive IFR
Visi :
Ceiling :
>= 8 km
>= 3000ft
5 to 8 km
1000 to 3000 ft
1500m to 5 km
500 to 1000 ft
800 to 1500m
200 to 500 ft
< 800m
< 200 ft
Symbols :   Thunderstorms  Fog  Heavy snow  Heavy precipitations  Wind > 20 kt
SIGMETs :     Misc.  Thunderstorms  Icing  Turbulence  Mountain Waves  Volcanic Ashes







- Airport Elevation : 16 ft
- IATA code : SDR


LEXJ - Santander Cantabria

CURRENT METAR :
  • 181300Z 28012KT 9999 FEW025 SCT043 13/08 Q1030

EXPIRED METARs :
  • 181230Z 28012KT 250V350 9999 SCT025 SCT055 13/09 Q1030
  • 181200Z 29009KT 260V330 9999 -RA SCT022 SCT050 10/08 Q1030
  • 181130Z 29011KT 260V320 9999 -RA SCT025 SCT050 11/08 Q1030
  • 181100Z 30011KT 280V350 9999 -RA FEW021 SCT045 BKN050 10/08 Q1030
  • 181030Z 29012KT 9999 SCT032 BKN060 11/07 Q1030

TAF TAF LEXJ
Valid from the 18 at 09:00 until the 19 at 09:00 UTC


180800Z 1809/1909 27008KT 9999 SCT025 BKN035 TX12/1814Z TN07/1907Z
TEMPO 1809/1909 RA
PROB40
TEMPO 1900/1909 3000 RA BKN010
TEMPO 1811/1820 33012KT
No reported NOTAMs for that airfield.



MET'MAP, your aeronautical weather chart ! - Copyright ORBIFLY December 2007 - Disclaimer

ORBIFLY MET'MAP TEAM :

Programming & Development : Alexandra Zaïnal
Concept & Development : Baudouin d'Aumeries
Co-Development & Prog : Marc-Olivier Méhu
Technical & hardware support : Manuel Goepfert

Contact : metmap@orbifly.com




SOURCES & CREDITS :

   NOAA